createdAt,value
2018-02-13T00:00:40.399Z,19.46
2018-02-13T00:01:49.882Z,19.44
2018-02-13T00:02:59.107Z,19.46
2018-02-13T00:04:07.797Z,19.37
2018-02-13T00:05:16.490Z,19.54
2018-02-13T00:06:25.447Z,19.44
2018-02-13T00:07:34.406Z,19.47
2018-02-13T00:08:43.892Z,19.48
2018-02-13T00:09:52.582Z,19.48
2018-02-13T00:11:01.539Z,19.5
2018-02-13T00:12:10.495Z,19.41
2018-02-13T00:13:19.453Z,19.47
2018-02-13T00:14:28.729Z,19.51
2018-02-13T00:15:37.687Z,19.51
2018-02-13T00:16:47.171Z,19.47
2018-02-13T00:17:56.126Z,19.5
2018-02-13T00:19:05.084Z,19.47
2018-02-13T00:20:14.575Z,19.5
2018-02-13T00:21:23.534Z,19.48
2018-02-13T00:22:32.220Z,19.47
2018-02-13T00:23:41.983Z,19.48
2018-02-13T00:24:50.942Z,19.51
2018-02-13T00:25:59.893Z,19.46
2018-02-13T00:27:08.587Z,19.47
2018-02-13T00:28:17.275Z,19.46
2018-02-13T00:29:26.496Z,19.43
2018-02-13T00:30:35.713Z,19.47
2018-02-13T00:31:45.201Z,19.46
2018-02-13T00:32:54.209Z,19.46
2018-02-13T00:34:02.847Z,19.48
2018-02-13T00:35:11.534Z,19.47
2018-02-13T00:36:20.226Z,19.46
2018-02-13T00:37:29.182Z,19.47
2018-02-13T00:38:38.414Z,19.51
2018-02-13T00:39:47.109Z,19.5
2018-02-13T00:40:55.793Z,19.5
2018-02-13T00:42:04.752Z,19.44
2018-02-13T00:43:13.705Z,19.46
2018-02-13T00:44:22.660Z,19.48
2018-02-13T00:45:31.351Z,19.5
2018-02-13T00:46:40.301Z,19.5
2018-02-13T00:47:49.266Z,19.46
2018-02-13T00:48:57.953Z,19.41
2018-02-13T00:50:07.173Z,19.51
2018-02-13T00:51:16.126Z,19.4
2018-02-13T00:52:24.818Z,19.46
2018-02-13T00:53:33.774Z,19.46
2018-02-13T00:54:42.464Z,19.47
2018-02-13T00:55:51.423Z,19.44
2018-02-13T00:57:00.903Z,19.47
2018-02-13T00:58:10.127Z,19.48
2018-02-13T00:59:19.085Z,19.44
2018-02-13T01:00:28.043Z,19.46
2018-02-13T01:01:36.999Z,19.4
2018-02-13T01:02:46.223Z,19.5
2018-02-13T01:03:54.910Z,19.44
2018-02-13T01:05:03.863Z,19.41
2018-02-13T01:06:12.818Z,19.46
2018-02-13T01:07:21.779Z,19.44
2018-02-13T01:08:31.011Z,19.43
2018-02-13T01:09:40.500Z,19.5
2018-02-13T01:10:49.459Z,19.44
2018-02-13T01:11:58.415Z,19.46
2018-02-13T01:13:07.367Z,19.41
2018-02-13T01:14:16.608Z,19.4
2018-02-13T01:15:25.276Z,19.48
2018-02-13T01:16:34.555Z,19.43
2018-02-13T01:17:43.245Z,19.5
2018-02-13T01:18:52.466Z,19.41
2018-02-13T01:20:01.422Z,19.44
2018-02-13T01:21:10.114Z,19.44
2018-02-13T01:22:18.804Z,19.44
2018-02-13T01:23:27.763Z,19.48
2018-02-13T01:24:36.721Z,19.43
2018-02-13T01:25:45.411Z,19.46
2018-02-13T01:26:54.894Z,19.47
2018-02-13T01:28:04.119Z,19.47
2018-02-13T01:29:12.806Z,19.4
2018-02-13T01:30:21.498Z,19.33
2018-02-13T01:31:30.720Z,19.39
2018-02-13T01:32:39.947Z,19.46
2018-02-13T01:33:48.899Z,19.43
2018-02-13T01:34:57.853Z,19.39
2018-02-13T01:36:06.887Z,19.48
2018-02-13T01:37:15.842Z,19.44
2018-02-13T01:38:25.336Z,19.32
2018-02-13T01:39:34.567Z,19.44
2018-02-13T01:40:43.793Z,19.47
2018-02-13T01:41:52.482Z,19.39
2018-02-13T01:43:01.437Z,19.37
2018-02-13T01:44:10.392Z,19.44
2018-02-13T01:45:19.086Z,19.33
2018-02-13T01:46:28.306Z,19.39
2018-02-13T01:47:37.799Z,19.41
2018-02-13T01:48:47.021Z,19.44
2018-02-13T01:49:55.981Z,19.41
2018-02-13T01:51:04.935Z,19.32
2018-02-13T01:52:13.888Z,19.44
2018-02-13T01:53:22.577Z,19.41
2018-02-13T01:54:31.804Z,19.31
2018-02-13T01:55:41.026Z,19.32
2018-02-13T01:56:49.981Z,19.43
2018-02-13T01:57:58.935Z,19.47
2018-02-13T01:59:07.890Z,19.36
2018-02-13T02:00:16.843Z,19.43
2018-02-13T02:01:25.535Z,19.37
2018-02-13T02:02:34.224Z,19.47
2018-02-13T02:03:43.182Z,19.33
2018-02-13T02:04:51.870Z,19.44
2018-02-13T02:06:01.091Z,19.36
2018-02-13T02:07:10.317Z,19.36
2018-02-13T02:08:19.543Z,19.39
2018-02-13T02:09:28.505Z,19.36
2018-02-13T02:10:37.460Z,19.44
2018-02-13T02:11:46.682Z,19.36
2018-02-13T02:12:55.371Z,19.33
2018-02-13T02:14:04.591Z,19.43
2018-02-13T02:15:13.548Z,19.39
2018-02-13T02:16:22.237Z,19.37
2018-02-13T02:17:30.929Z,19.4
2018-02-13T02:18:40.418Z,19.4
2018-02-13T02:19:49.372Z,19.41
2018-02-13T02:20:58.330Z,19.33
2018-02-13T02:22:07.017Z,19.39
2018-02-13T02:23:15.710Z,19.4
2018-02-13T02:24:24.400Z,19.4
2018-02-13T02:25:33.353Z,19.36
2018-02-13T02:26:42.837Z,19.4
2018-02-13T02:27:51.788Z,19.4
2018-02-13T02:29:00.744Z,19.33
2018-02-13T02:30:09.968Z,19.37
2018-02-13T02:31:19.190Z,19.37
2018-02-13T02:32:28.416Z,19.26
2018-02-13T02:33:37.636Z,19.33
2018-02-13T02:34:46.596Z,19.37
2018-02-13T02:35:55.819Z,19.43
2018-02-13T02:37:04.779Z,19.4
2018-02-13T02:38:14.005Z,19.39
2018-02-13T02:39:23.500Z,19.36
2018-02-13T02:40:32.722Z,19.39
2018-02-13T02:41:41.950Z,19.39
2018-02-13T02:42:50.638Z,19.41
2018-02-13T02:43:59.858Z,19.32
2018-02-13T02:45:08.822Z,19.36
2018-02-13T02:46:18.048Z,19.39
2018-02-13T02:47:27.548Z,19.39
2018-02-13T02:48:36.240Z,19.26
2018-02-13T02:49:45.194Z,19.39
2018-02-13T02:50:53.888Z,19.37
2018-02-13T02:52:03.116Z,19.39
2018-02-13T02:53:11.808Z,19.33
2018-02-13T02:54:20.764Z,19.32
2018-02-13T02:55:30.256Z,19.36
2018-02-13T02:56:39.750Z,19.36
2018-02-13T02:57:48.978Z,19.37
2018-02-13T02:58:57.940Z,19.36
2018-02-13T03:00:07.425Z,19.23
2018-02-13T03:01:16.114Z,19.39
2018-02-13T03:02:25.071Z,19.39
2018-02-13T03:03:34.032Z,19.39
2018-02-13T03:04:42.980Z,19.39
2018-02-13T03:05:51.937Z,19.33
2018-02-13T03:07:00.629Z,19.37
2018-02-13T03:08:09.857Z,19.39
2018-02-13T03:09:19.078Z,19.32
2018-02-13T03:10:28.830Z,19.37
2018-02-13T03:11:38.051Z,19.33
2018-02-13T03:12:47.004Z,19.33
2018-02-13T03:13:56.225Z,19.29
2018-02-13T03:15:04.918Z,19.39
2018-02-13T03:16:14.138Z,19.32
2018-02-13T03:17:23.367Z,19.31
2018-02-13T03:18:32.047Z,19.33
2018-02-13T03:19:40.989Z,19.23
2018-02-13T03:20:49.668Z,19.32
2018-02-13T03:21:58.617Z,19.33
2018-02-13T03:23:07.560Z,19.29
2018-02-13T03:24:16.506Z,19.37
2018-02-13T03:25:25.452Z,19.29
2018-02-13T03:26:34.394Z,19.33
2018-02-13T03:27:43.605Z,19.29
2018-02-13T03:28:52.553Z,19.32
2018-02-13T03:30:01.233Z,19.33
2018-02-13T03:31:10.462Z,19.28
2018-02-13T03:32:19.406Z,19.26
2018-02-13T03:33:28.611Z,19.31
2018-02-13T03:34:37.821Z,19.29
2018-02-13T03:35:46.767Z,19.29
2018-02-13T03:36:55.974Z,19.36
2018-02-13T03:38:05.453Z,19.33
2018-02-13T03:39:14.397Z,19.31
2018-02-13T03:40:23.334Z,19.32
2018-02-13T03:41:32.545Z,19.39
2018-02-13T03:42:41.488Z,19.26
2018-02-13T03:43:50.429Z,19.28
2018-02-13T03:44:59.373Z,19.39
2018-02-13T03:46:08.586Z,19.31
2018-02-13T03:47:17.525Z,19.31
2018-02-13T03:48:26.747Z,19.33
2018-02-13T03:49:35.958Z,19.33
2018-02-13T03:50:45.465Z,19.26
2018-02-13T03:51:54.374Z,19.33
2018-02-13T03:53:03.052Z,19.32
2018-02-13T03:54:11.735Z,19.25
2018-02-13T03:55:20.678Z,19.26
2018-02-13T03:56:30.152Z,19.23
2018-02-13T03:57:38.835Z,19.33
2018-02-13T03:58:47.776Z,19.26
2018-02-13T03:59:56.718Z,19.31
2018-02-13T04:01:05.664Z,19.36
2018-02-13T04:02:14.609Z,19.26
2018-02-13T04:03:23.549Z,19.28
2018-02-13T04:04:32.232Z,19.25
2018-02-13T04:05:41.447Z,19.29
2018-02-13T04:06:50.390Z,19.32
2018-02-13T04:07:59.068Z,19.33
2018-02-13T04:09:07.749Z,19.28
2018-02-13T04:10:16.954Z,19.29
2018-02-13T04:11:25.899Z,19.28
2018-02-13T04:12:34.844Z,19.31
2018-02-13T04:13:44.058Z,19.29
2018-02-13T04:14:53.533Z,19.26
2018-02-13T04:16:02.215Z,19.29
2018-02-13T04:17:11.153Z,19.25
2018-02-13T04:18:20.096Z,19.29
2018-02-13T04:19:29.302Z,19.32
2018-02-13T04:20:38.777Z,19.31
2018-02-13T04:21:47.720Z,19.32
2018-02-13T04:22:56.402Z,19.31
2018-02-13T04:24:05.605Z,19.36
2018-02-13T04:25:14.819Z,19.37
2018-02-13T04:26:23.759Z,19.36
2018-02-13T04:27:32.701Z,19.31
2018-02-13T04:28:41.641Z,19.37
2018-02-13T04:29:50.582Z,19.28
2018-02-13T04:30:59.266Z,19.36
2018-02-13T04:32:07.948Z,19.33
2018-02-13T04:33:17.160Z,19.28
2018-02-13T04:34:26.420Z,19.29
2018-02-13T04:35:35.101Z,19.36
2018-02-13T04:36:44.047Z,19.31
2018-02-13T04:37:52.730Z,19.31
2018-02-13T04:39:02.200Z,19.32
2018-02-13T04:40:11.143Z,19.28
2018-02-13T04:41:19.823Z,19.37
2018-02-13T04:42:28.499Z,19.28
2018-02-13T04:43:37.708Z,19.28
2018-02-13T04:44:46.386Z,19.36
2018-02-13T04:45:55.326Z,19.36
2018-02-13T04:47:04.806Z,19.33
2018-02-13T04:48:14.017Z,19.32
2018-02-13T04:49:23.227Z,19.36
2018-02-13T04:50:32.172Z,19.36
2018-02-13T04:51:41.116Z,19.28
2018-02-13T04:52:49.797Z,19.26
2018-02-13T04:53:58.473Z,19.37
2018-02-13T04:55:07.687Z,19.28
2018-02-13T04:56:16.632Z,19.37
2018-02-13T04:57:25.315Z,19.26
2018-02-13T04:58:33.993Z,19.32
2018-02-13T04:59:42.946Z,19.29
2018-02-13T05:00:51.620Z,19.28
2018-02-13T05:02:00.564Z,19.28
2018-02-13T05:03:09.511Z,19.26
2018-02-13T05:04:18.191Z,19.26
2018-02-13T05:05:27.672Z,19.26
2018-02-13T05:06:36.884Z,19.32
2018-02-13T05:07:45.567Z,19.28
2018-02-13T05:08:54.244Z,19.26
2018-02-13T05:10:03.248Z,19.29
2018-02-13T05:11:12.454Z,19.32
2018-02-13T05:12:21.406Z,19.29
2018-02-13T05:13:30.085Z,19.31
2018-02-13T05:14:39.556Z,19.28
2018-02-13T05:15:48.236Z,19.31
2018-02-13T05:16:56.914Z,19.28
2018-02-13T05:18:06.704Z,19.29
2018-02-13T05:19:15.384Z,19.23
2018-02-13T05:20:24.853Z,19.23
2018-02-13T05:21:33.800Z,19.28
2018-02-13T05:22:43.010Z,19.29
2018-02-13T05:23:51.692Z,19.29
2018-02-13T05:25:00.641Z,19.23
2018-02-13T05:26:09.584Z,19.23
2018-02-13T05:27:18.528Z,19.14
2018-02-13T05:28:27.469Z,19.31
2018-02-13T05:29:36.416Z,19.28
2018-02-13T05:30:45.690Z,19.25
2018-02-13T05:31:54.632Z,19.28
2018-02-13T05:33:03.313Z,19.26
2018-02-13T05:34:11.991Z,19.25
2018-02-13T05:35:20.672Z,19.26
2018-02-13T05:36:29.610Z,19.28
2018-02-13T05:37:38.555Z,19.23
2018-02-13T05:38:47.502Z,19.16
2018-02-13T05:39:56.711Z,19.26
2018-02-13T05:41:05.392Z,19.14
2018-02-13T05:42:14.339Z,19.25
2018-02-13T05:43:23.017Z,19.26
2018-02-13T05:44:31.693Z,19.28
2018-02-13T05:45:40.373Z,19.23
2018-02-13T05:46:49.054Z,19.21
2018-02-13T05:47:58.262Z,19.21
2018-02-13T05:49:06.939Z,19.29
2018-02-13T05:50:16.415Z,19.1
2018-02-13T05:51:25.622Z,19.28
2018-02-13T05:52:34.298Z,19.22
2018-02-13T05:53:42.978Z,19.29
2018-02-13T05:54:51.925Z,19.21
2018-02-13T05:56:00.603Z,19.32
2018-02-13T05:57:09.285Z,19.26
2018-02-13T05:58:18.233Z,19.25
2018-02-13T05:59:27.456Z,19.14
2018-02-13T06:00:36.410Z,19.16
2018-02-13T06:01:45.661Z,19.25
2018-02-13T06:02:55.132Z,19.28
2018-02-13T06:04:03.808Z,19.28
2018-02-13T06:05:12.491Z,19.23
2018-02-13T06:06:21.430Z,19.23
2018-02-13T06:07:30.374Z,19.22
2018-02-13T06:08:39.585Z,19.23
2018-02-13T06:09:48.527Z,19.28
2018-02-13T06:10:57.209Z,19.22
2018-02-13T06:12:06.151Z,19.21
2018-02-13T06:13:15.097Z,19.28
2018-02-13T06:14:23.775Z,19.22
2018-02-13T06:15:32.986Z,19.21
2018-02-13T06:16:42.202Z,19.18
2018-02-13T06:17:50.879Z,19.28
2018-02-13T06:19:00.093Z,19.21
2018-02-13T06:20:09.302Z,19.18
2018-02-13T06:21:18.518Z,19.21
2018-02-13T06:22:27.194Z,19.16
2018-02-13T06:23:36.139Z,19.21
2018-02-13T06:24:45.348Z,19.18
2018-02-13T06:25:54.558Z,19.25
2018-02-13T06:27:03.504Z,19.25
2018-02-13T06:28:12.449Z,19.23
2018-02-13T06:29:21.389Z,19.18
2018-02-13T06:30:30.074Z,19.25
2018-02-13T06:31:39.020Z,19.23
2018-02-13T06:32:47.696Z,19.13
2018-02-13T06:33:57.172Z,19.19
2018-02-13T06:35:05.848Z,19.18
2018-02-13T06:36:15.329Z,19.25
2018-02-13T06:37:24.278Z,19.22
2018-02-13T06:38:33.488Z,19.28
2018-02-13T06:39:42.169Z,19.26
2018-02-13T06:40:51.118Z,19.21
2018-02-13T06:41:59.799Z,19.23
2018-02-13T06:43:09.007Z,19.21
2018-02-13T06:44:17.958Z,19.23
2018-02-13T06:45:27.431Z,19.22
2018-02-13T06:46:36.376Z,19.31
2018-02-13T06:47:45.319Z,19.22
2018-02-13T06:48:54.001Z,19.25
2018-02-13T06:50:02.721Z,19.16
2018-02-13T06:51:11.947Z,19.25
2018-02-13T06:52:20.624Z,19.18
2018-02-13T06:53:29.305Z,19.22
2018-02-13T06:54:38.248Z,19.19
2018-02-13T06:55:47.458Z,19.21
2018-02-13T06:56:56.409Z,19.22
2018-02-13T06:58:05.621Z,19.22
2018-02-13T06:59:14.302Z,19.28
2018-02-13T07:00:23.242Z,19.21
2018-02-13T07:01:31.918Z,19.16
2018-02-13T07:02:40.861Z,19.26
2018-02-13T07:03:49.543Z,19.14
2018-02-13T07:04:58.487Z,19.16
2018-02-13T07:06:07.694Z,19.22
2018-02-13T07:07:16.639Z,19.25
2018-02-13T07:08:25.582Z,19.25
2018-02-13T07:09:34.263Z,19.13
2018-02-13T07:10:43.736Z,19.25
2018-02-13T07:11:53.260Z,19.13
2018-02-13T07:13:01.939Z,19.23
2018-02-13T07:14:10.883Z,19.16
2018-02-13T07:15:19.823Z,19.16
2018-02-13T07:16:28.501Z,19.19
2018-02-13T07:17:37.176Z,19.22
2018-02-13T07:18:46.647Z,19.21
2018-02-13T07:19:55.323Z,19.22
2018-02-13T07:21:04.005Z,19.26
2018-02-13T07:22:12.684Z,19.1
2018-02-13T07:23:21.628Z,19.14
2018-02-13T07:24:30.834Z,19.21
2018-02-13T07:25:39.780Z,19.21
2018-02-13T07:26:48.990Z,19.22
2018-02-13T07:27:57.930Z,19.26
2018-02-13T07:29:06.607Z,19.22
2018-02-13T07:30:15.553Z,19.25
2018-02-13T07:31:24.233Z,19.26
2018-02-13T07:32:32.910Z,19.21
2018-02-13T07:33:41.852Z,19.23
2018-02-13T07:34:50.526Z,19.31
2018-02-13T07:35:59.468Z,19.25
2018-02-13T07:37:08.685Z,19.22
2018-02-13T07:38:18.548Z,19.19
2018-02-13T07:39:27.231Z,19.29
2018-02-13T07:40:36.185Z,19.25
2018-02-13T07:41:45.132Z,19.23
2018-02-13T07:42:54.123Z,19.33
2018-02-13T07:44:02.804Z,19.23
2018-02-13T07:45:11.484Z,19.28
2018-02-13T07:46:20.429Z,19.25
2018-02-13T07:47:29.372Z,19.31
2018-02-13T07:48:38.314Z,19.29
2018-02-13T07:49:47.266Z,19.33
2018-02-13T07:50:55.941Z,19.28
2018-02-13T07:52:05.151Z,19.25
2018-02-13T07:53:13.830Z,19.28
2018-02-13T07:54:22.506Z,19.36
2018-02-13T07:55:31.452Z,19.29
2018-02-13T07:56:40.131Z,19.36
2018-02-13T07:57:48.815Z,19.26
2018-02-13T07:58:57.492Z,19.1
2018-02-13T08:00:06.699Z,19.26
2018-02-13T08:01:15.647Z,19.28
2018-02-13T08:02:24.862Z,19.28
2018-02-13T08:03:33.545Z,19.39
2018-02-13T08:04:42.805Z,19.37
2018-02-13T08:05:51.750Z,19.36
2018-02-13T08:07:00.432Z,19.28
2018-02-13T08:08:09.382Z,19.25
2018-02-13T08:09:18.064Z,19.25
2018-02-13T08:10:27.007Z,19.31
2018-02-13T08:11:36.255Z,19.13
2018-02-13T08:12:45.234Z,19.14
2018-02-13T08:13:54.187Z,19.13
2018-02-13T08:15:03.824Z,19.14
2018-02-13T08:16:13.010Z,19.13
2018-02-13T08:17:22.237Z,19.18
2018-02-13T08:18:31.184Z,19.22
2018-02-13T08:19:40.128Z,19.23
2018-02-13T08:20:48.812Z,19.28
2018-02-13T08:21:57.494Z,19.21
2018-02-13T08:23:06.494Z,19.22
2018-02-13T08:24:15.126Z,19.25
2018-02-13T08:25:24.074Z,19.13
2018-02-13T08:26:32.754Z,19.22
2018-02-13T08:27:41.429Z,19.28
2018-02-13T08:28:50.638Z,19.31
2018-02-13T08:29:59.853Z,19.26
2018-02-13T08:31:08.806Z,19.36
2018-02-13T08:32:17.486Z,19.26
2018-02-13T08:33:26.965Z,19.16
2018-02-13T08:34:36.441Z,19.06
2018-02-13T08:35:45.662Z,19.04
2018-02-13T08:36:54.608Z,19.02
2018-02-13T08:38:03.284Z,19
2018-02-13T08:39:11.968Z,18.99
2018-02-13T08:40:20.910Z,19
2018-02-13T08:41:30.114Z,18.88
2018-02-13T08:42:39.120Z,18.9
2018-02-13T08:43:48.064Z,18.92
2018-02-13T08:44:57.010Z,18.81
2018-02-13T08:46:06.018Z,18.73
2018-02-13T08:47:14.963Z,18.72
2018-02-13T08:48:23.905Z,18.85
2018-02-13T08:49:32.628Z,18.75
2018-02-13T08:50:41.548Z,18.73
2018-02-13T08:51:50.494Z,18.75
2018-02-13T08:52:59.441Z,18.8
2018-02-13T08:54:08.381Z,18.67
2018-02-13T08:55:17.595Z,18.67
2018-02-13T08:56:26.271Z,18.66
2018-02-13T08:57:34.947Z,18.66
2018-02-13T08:58:44.156Z,18.63
2018-02-13T08:59:52.904Z,18.63
2018-02-13T09:01:01.581Z,18.66
2018-02-13T09:02:10.531Z,18.63
2018-02-13T09:03:19.210Z,18.63
2018-02-13T09:04:28.421Z,18.57
2018-02-13T09:05:37.168Z,18.58
2018-02-13T09:06:46.443Z,18.54
2018-02-13T09:07:55.642Z,18.54
2018-02-13T09:09:04.585Z,18.52
2018-02-13T09:10:13.789Z,18.52
2018-02-13T09:11:23.000Z,18.52
2018-02-13T09:12:31.946Z,18.52
2018-02-13T09:13:40.894Z,18.48
2018-02-13T09:14:49.837Z,18.54
2018-02-13T09:15:58.780Z,18.57
2018-02-13T09:17:07.990Z,18.51
2018-02-13T09:18:16.931Z,18.57
2018-02-13T09:19:26.139Z,18.52
2018-02-13T09:20:34.821Z,18.57
2018-02-13T09:21:44.031Z,18.5
2018-02-13T09:22:52.708Z,18.62
2018-02-13T09:24:01.915Z,18.44
2018-02-13T09:25:10.856Z,18.62
2018-02-13T09:26:19.797Z,18.54
2018-02-13T09:27:29.010Z,18.52
2018-02-13T09:28:38.224Z,18.65
2018-02-13T09:29:46.903Z,18.67
2018-02-13T09:30:55.582Z,18.62
2018-02-13T09:32:04.259Z,18.67
2018-02-13T09:33:13.732Z,18.73
2018-02-13T09:34:22.412Z,18.7
2018-02-13T09:35:31.355Z,18.78
2018-02-13T09:36:40.039Z,18.78
2018-02-13T09:37:48.982Z,18.85
2018-02-13T09:38:57.928Z,18.78
2018-02-13T09:40:07.141Z,18.88
2018-02-13T09:41:16.082Z,18.87
2018-02-13T09:42:25.023Z,18.87
2018-02-13T09:43:33.965Z,18.94
2018-02-13T09:44:43.176Z,18.91
2018-02-13T09:45:52.444Z,18.98
2018-02-13T09:47:01.080Z,18.95
2018-02-13T09:48:10.551Z,18.95
2018-02-13T09:49:19.229Z,18.94
2018-02-13T09:50:28.170Z,19.06
2018-02-13T09:51:37.119Z,18.95
2018-02-13T09:52:45.797Z,19.02
2018-02-13T09:53:54.744Z,19
2018-02-13T09:55:03.688Z,18.94
2018-02-13T09:56:12.368Z,19.04
2018-02-13T09:57:21.050Z,19.04
2018-02-13T09:58:29.782Z,19.14
2018-02-13T09:59:38.935Z,19.02
2018-02-13T10:00:48.410Z,19.02
2018-02-13T10:01:57.095Z,18.99
2018-02-13T10:03:06.294Z,19.08
2018-02-13T10:04:14.974Z,19.1
2018-02-13T10:05:23.650Z,19.08
2018-02-13T10:06:32.328Z,19.11
2018-02-13T10:07:41.002Z,19.08
2018-02-13T10:08:49.682Z,19.08
2018-02-13T10:09:58.358Z,19.13
2018-02-13T10:11:07.564Z,19.11
2018-02-13T10:12:16.771Z,19.25
2018-02-13T10:13:25.982Z,19.1
2018-02-13T10:14:34.999Z,19.11
2018-02-13T10:15:44.212Z,19.18
2018-02-13T10:16:53.202Z,19.16
2018-02-13T10:18:01.883Z,19.13
2018-02-13T10:19:11.090Z,19.22
2018-02-13T10:20:20.296Z,19.19
2018-02-13T10:21:29.504Z,19.13
2018-02-13T10:22:38.711Z,19.19
2018-02-13T10:23:47.658Z,19.26
2018-02-13T10:24:56.338Z,19.28
2018-02-13T10:26:05.280Z,19.28
2018-02-13T10:27:14.232Z,19.25
2018-02-13T10:28:22.908Z,19.31
2018-02-13T10:29:32.115Z,19.33
2018-02-13T10:30:41.858Z,19.37
2018-02-13T10:31:51.336Z,19.31
2018-02-13T10:33:00.024Z,19.26
2018-02-13T10:34:09.242Z,19.29
2018-02-13T10:35:18.446Z,19.41
2018-02-13T10:36:27.385Z,19.33
2018-02-13T10:37:36.340Z,19.46
2018-02-13T10:38:45.553Z,19.33
2018-02-13T10:39:54.231Z,19.44
2018-02-13T10:41:03.171Z,19.48
2018-02-13T10:42:11.847Z,19.54
2018-02-13T10:43:20.526Z,19.5
2018-02-13T10:44:29.524Z,19.51
2018-02-13T10:45:38.153Z,19.59
2018-02-13T10:46:47.362Z,19.54
2018-02-13T10:47:56.304Z,19.62
2018-02-13T10:49:05.798Z,19.59
2018-02-13T10:50:14.478Z,19.58
2018-02-13T10:51:23.161Z,19.58
2018-02-13T10:52:32.106Z,19.68
2018-02-13T10:53:41.049Z,19.71
2018-02-13T10:54:49.992Z,19.71
2018-02-13T10:55:59.196Z,19.69
2018-02-13T10:57:08.139Z,19.74
2018-02-13T10:58:16.820Z,19.74
2018-02-13T10:59:26.302Z,19.66
2018-02-13T11:00:35.511Z,19.8
2018-02-13T11:01:44.445Z,19.77
2018-02-13T11:02:53.388Z,19.83
2018-02-13T11:04:02.071Z,19.81
2018-02-13T11:05:10.753Z,19.83
2018-02-13T11:06:19.971Z,19.83
2018-02-13T11:07:28.915Z,19.78
2018-02-13T11:08:37.855Z,19.88
2018-02-13T11:09:46.534Z,19.84
2018-02-13T11:10:55.210Z,19.92
2018-02-13T11:12:03.966Z,19.91
2018-02-13T11:13:12.909Z,19.83
2018-02-13T11:14:22.119Z,19.86
2018-02-13T11:15:30.798Z,19.96
2018-02-13T11:16:39.738Z,19.96
2018-02-13T11:17:48.421Z,19.96
2018-02-13T11:18:57.379Z,19.84
2018-02-13T11:20:06.859Z,19.91
2018-02-13T11:21:15.804Z,20.01
2018-02-13T11:22:24.741Z,19.94
2018-02-13T11:23:33.685Z,20.01
2018-02-13T11:24:42.633Z,19.98
2018-02-13T11:25:51.575Z,19.94
2018-02-13T11:27:00.790Z,20.05
2018-02-13T11:28:09.472Z,19.95
2018-02-13T11:29:18.413Z,19.98
2018-02-13T11:30:27.091Z,19.99
2018-02-13T11:31:36.295Z,20.05
2018-02-13T11:32:45.240Z,19.95
2018-02-13T11:33:54.896Z,19.98
2018-02-13T11:35:03.573Z,19.98
2018-02-13T11:36:12.255Z,20.01
2018-02-13T11:37:21.201Z,19.99
2018-02-13T11:38:30.147Z,20.06
2018-02-13T11:39:39.095Z,20.1
2018-02-13T11:40:48.039Z,20.08
2018-02-13T11:41:56.990Z,20.11
2018-02-13T11:43:06.206Z,20.06
2018-02-13T11:44:15.677Z,20.1
2018-02-13T11:45:24.625Z,20.11
2018-02-13T11:46:33.835Z,20.13
2018-02-13T11:47:42.515Z,20.08
2018-02-13T11:48:51.454Z,20.17
2018-02-13T11:50:00.396Z,20.08
2018-02-13T11:51:09.076Z,20.14
2018-02-13T11:52:18.019Z,20.11
2018-02-13T11:53:26.963Z,20.16
2018-02-13T11:54:35.905Z,20.2
2018-02-13T11:55:45.379Z,20.18
2018-02-13T11:56:54.651Z,20.16
2018-02-13T11:58:03.870Z,20.2
2018-02-13T11:59:12.546Z,20.2
2018-02-13T12:00:21.485Z,20.13
2018-02-13T12:01:30.426Z,20.2
2018-02-13T12:02:39.109Z,20.16
2018-02-13T12:03:47.791Z,20.23
2018-02-13T12:04:57.004Z,20.2
2018-02-13T12:06:05.947Z,20.24
2018-02-13T12:07:15.159Z,20.24
2018-02-13T12:08:24.368Z,20.31
2018-02-13T12:09:33.634Z,20.28
2018-02-13T12:10:42.579Z,20.31
2018-02-13T12:11:51.520Z,20.26
2018-02-13T12:13:00.740Z,20.21
2018-02-13T12:14:09.683Z,20.24
2018-02-13T12:15:18.885Z,20.31
2018-02-13T12:16:27.839Z,20.32
2018-02-13T12:17:36.778Z,20.32
2018-02-13T12:18:45.461Z,20.26
2018-02-13T12:19:54.404Z,20.28
2018-02-13T12:21:03.790Z,20.26
2018-02-13T12:22:12.997Z,20.33
2018-02-13T12:23:21.943Z,20.33
2018-02-13T12:24:31.158Z,20.35
2018-02-13T12:25:40.101Z,20.39
2018-02-13T12:26:49.050Z,20.33
2018-02-13T12:27:57.726Z,20.35
2018-02-13T12:29:06.406Z,20.38
2018-02-13T12:30:15.938Z,20.33
2018-02-13T12:31:24.882Z,20.32
2018-02-13T12:32:34.088Z,20.36
2018-02-13T12:33:42.770Z,20.39
2018-02-13T12:34:52.327Z,20.38
2018-02-13T12:36:01.510Z,20.36
2018-02-13T12:37:10.449Z,20.36
2018-02-13T12:38:19.127Z,20.41
2018-02-13T12:39:28.340Z,20.36
2018-02-13T12:40:37.016Z,20.38
2018-02-13T12:41:45.961Z,20.47
2018-02-13T12:42:54.930Z,20.35
2018-02-13T12:44:04.471Z,20.47
2018-02-13T12:45:13.667Z,20.39
2018-02-13T12:46:22.350Z,20.47
2018-02-13T12:47:31.027Z,20.42
2018-02-13T12:48:39.980Z,20.42
2018-02-13T12:49:48.926Z,20.42
2018-02-13T12:50:57.605Z,20.42
2018-02-13T12:52:06.283Z,20.47
2018-02-13T12:53:15.227Z,20.48
2018-02-13T12:54:24.173Z,20.43
2018-02-13T12:55:33.385Z,20.41
2018-02-13T12:56:42.327Z,20.41
2018-02-13T12:57:51.008Z,20.48
2018-02-13T12:59:00.217Z,20.43
2018-02-13T13:00:09.157Z,20.48
2018-02-13T13:01:18.103Z,20.42
2018-02-13T13:02:26.783Z,20.41
2018-02-13T13:03:35.728Z,20.42
2018-02-13T13:04:44.408Z,20.47
2018-02-13T13:05:53.630Z,20.41
2018-02-13T13:07:03.106Z,20.48
2018-02-13T13:08:11.785Z,20.47
2018-02-13T13:09:20.731Z,20.42
2018-02-13T13:10:30.211Z,20.48
2018-02-13T13:11:39.421Z,20.39
2018-02-13T13:12:48.099Z,20.48
2018-02-13T13:13:57.039Z,20.47
2018-02-13T13:15:05.983Z,20.36
2018-02-13T13:16:14.924Z,20.48
2018-02-13T13:17:23.604Z,20.42
2018-02-13T13:18:32.548Z,20.41
2018-02-13T13:19:41.493Z,20.38
2018-02-13T13:20:50.696Z,20.43
2018-02-13T13:22:00.432Z,20.38
2018-02-13T13:23:09.377Z,20.5
2018-02-13T13:24:18.322Z,20.39
2018-02-13T13:25:27.000Z,20.38
2018-02-13T13:26:35.943Z,20.35
2018-02-13T13:27:45.153Z,20.41
2018-02-13T13:28:54.095Z,20.32
2018-02-13T13:30:03.041Z,20.47
2018-02-13T13:31:12.522Z,20.47
2018-02-13T13:32:21.200Z,20.43
2018-02-13T13:33:30.411Z,20.5
2018-02-13T13:34:39.357Z,20.38
2018-02-13T13:35:48.038Z,20.47
2018-02-13T13:36:56.984Z,20.35
2018-02-13T13:38:05.933Z,20.38
2018-02-13T13:39:14.877Z,20.32
2018-02-13T13:40:23.824Z,20.36
2018-02-13T13:41:32.497Z,20.23
2018-02-13T13:42:41.438Z,20.2
2018-02-13T13:43:50.382Z,20.18
2018-02-13T13:44:59.595Z,20.13
2018-02-13T13:46:08.803Z,20.08
2018-02-13T13:47:18.011Z,20.08
2018-02-13T13:48:26.690Z,20.11
2018-02-13T13:49:36.174Z,20.18
2018-02-13T13:50:45.115Z,20.14
2018-02-13T13:51:53.795Z,20.13
2018-02-13T13:53:03.004Z,20.11
2018-02-13T13:54:11.949Z,20.17
2018-02-13T13:55:20.947Z,20.14
2018-02-13T13:56:29.889Z,20.18
2018-02-13T13:57:38.835Z,20.17
2018-02-13T13:58:48.311Z,20.2
2018-02-13T13:59:57.532Z,20.16
2018-02-13T14:01:06.234Z,20.18
2018-02-13T14:02:15.184Z,20.17
2018-02-13T14:03:23.864Z,20.23
2018-02-13T14:04:32.810Z,20.28
2018-02-13T14:05:41.757Z,20.16
2018-02-13T14:06:50.971Z,20.24
2018-02-13T14:07:59.917Z,20.29
2018-02-13T14:09:09.130Z,20.21
2018-02-13T14:10:18.080Z,20.31
2018-02-13T14:11:27.031Z,20.29
2018-02-13T14:12:36.240Z,20.26
2018-02-13T14:13:45.722Z,20.21
2018-02-13T14:14:54.934Z,20.24
2018-02-13T14:16:03.883Z,20.21
2018-02-13T14:17:12.571Z,20.21
2018-02-13T14:18:21.800Z,20.29
2018-02-13T14:19:30.482Z,20.26
2018-02-13T14:20:39.692Z,20.2
2018-02-13T14:21:48.643Z,20.21
2018-02-13T14:22:57.590Z,20.13
2018-02-13T14:24:06.811Z,20.18
2018-02-13T14:25:15.758Z,20.13
2018-02-13T14:26:24.705Z,20.13
2018-02-13T14:27:33.389Z,20.16
2018-02-13T14:28:42.865Z,20.16
2018-02-13T14:29:51.546Z,20.16
2018-02-13T14:31:00.228Z,20.17
2018-02-13T14:32:09.445Z,20.1
2018-02-13T14:33:18.391Z,20.17
2018-02-13T14:34:27.087Z,20.17
2018-02-13T14:35:36.046Z,20.17
2018-02-13T14:36:45.511Z,20.18
2018-02-13T14:37:54.459Z,20.2
2018-02-13T14:39:03.932Z,20.13
2018-02-13T14:40:12.611Z,20.2
2018-02-13T14:41:21.558Z,20.14
2018-02-13T14:42:30.772Z,20.17
2018-02-13T14:43:40.250Z,20.08
2018-02-13T14:44:49.222Z,20.08
2018-02-13T14:45:58.171Z,20.1
2018-02-13T14:47:07.119Z,20.03
2018-02-13T14:48:16.407Z,20.06
2018-02-13T14:49:25.089Z,20.06
2018-02-13T14:50:33.767Z,20.05